sensor_id;sensor_type;location;lat;lon;timestamp;P1;durP1;ratioP1;P2;durP2;ratioP2
73487;SDS011;61721;42.206;25.320;2023-09-19T00:00:45;4.57;;;2.50;;
73487;SDS011;61721;42.206;25.320;2023-09-19T00:03:14;4.55;;;2.47;;
73487;SDS011;61721;42.206;25.320;2023-09-19T00:05:44;6.95;;;2.20;;
73487;SDS011;61721;42.206;25.320;2023-09-19T00:08:18;4.05;;;2.30;;
73487;SDS011;61721;42.206;25.320;2023-09-19T00:10:48;5.03;;;2.15;;
73487;SDS011;61721;42.206;25.320;2023-09-19T00:13:16;5.05;;;2.60;;
73487;SDS011;61721;42.206;25.320;2023-09-19T00:15:45;4.35;;;2.45;;
73487;SDS011;61721;42.206;25.320;2023-09-19T00:18:15;5.18;;;2.22;;
73487;SDS011;61721;42.206;25.320;2023-09-19T00:20:45;4.90;;;2.22;;
73487;SDS011;61721;42.206;25.320;2023-09-19T00:23:14;5.05;;;2.70;;
73487;SDS011;61721;42.206;25.320;2023-09-19T00:25:42;4.47;;;2.38;;
73487;SDS011;61721;42.206;25.320;2023-09-19T00:28:10;4.70;;;2.33;;
73487;SDS011;61721;42.206;25.320;2023-09-19T00:30:38;5.15;;;2.47;;
73487;SDS011;61721;42.206;25.320;2023-09-19T00:33:05;4.25;;;2.20;;
73487;SDS011;61721;42.206;25.320;2023-09-19T00:35:33;4.25;;;2.50;;
73487;SDS011;61721;42.206;25.320;2023-09-19T00:38:03;6.18;;;2.97;;
73487;SDS011;61721;42.206;25.320;2023-09-19T00:40:32;5.10;;;2.70;;
73487;SDS011;61721;42.206;25.320;2023-09-19T00:43:00;11.45;;;3.42;;
73487;SDS011;61721;42.206;25.320;2023-09-19T00:45:27;4.95;;;2.42;;
73487;SDS011;61721;42.206;25.320;2023-09-19T00:47:56;6.25;;;2.63;;
73487;SDS011;61721;42.206;25.320;2023-09-19T00:50:24;5.00;;;2.40;;
73487;SDS011;61721;42.206;25.320;2023-09-19T00:52:54;5.50;;;2.78;;
73487;SDS011;61721;42.206;25.320;2023-09-19T00:55:24;7.90;;;2.90;;
73487;SDS011;61721;42.206;25.320;2023-09-19T00:57:53;7.45;;;2.63;;
73487;SDS011;61721;42.206;25.320;2023-09-19T01:00:23;5.88;;;2.90;;
73487;SDS011;61721;42.206;25.320;2023-09-19T01:02:51;5.25;;;2.95;;
73487;SDS011;61721;42.206;25.320;2023-09-19T01:05:18;5.57;;;3.10;;
73487;SDS011;61721;42.206;25.320;2023-09-19T01:07:46;5.38;;;2.80;;
73487;SDS011;61721;42.206;25.320;2023-09-19T01:10:15;5.53;;;2.70;;
73487;SDS011;61721;42.206;25.320;2023-09-19T01:12:51;5.82;;;2.83;;
73487;SDS011;61721;42.206;25.320;2023-09-19T01:15:28;6.30;;;2.90;;
73487;SDS011;61721;42.206;25.320;2023-09-19T01:18:09;4.93;;;2.92;;
73487;SDS011;61721;42.206;25.320;2023-09-19T01:20:45;5.95;;;2.90;;
73487;SDS011;61721;42.206;25.320;2023-09-19T01:23:21;5.53;;;2.80;;
73487;SDS011;61721;42.206;25.320;2023-09-19T01:29:00;5.63;;;2.70;;
73487;SDS011;61721;42.206;25.320;2023-09-19T01:31:41;5.70;;;2.90;;
73487;SDS011;61721;42.206;25.320;2023-09-19T01:34:09;4.68;;;2.50;;
73487;SDS011;61721;42.206;25.320;2023-09-19T01:36:37;6.40;;;2.92;;
73487;SDS011;61721;42.206;25.320;2023-09-19T01:39:05;5.53;;;2.63;;
73487;SDS011;61721;42.206;25.320;2023-09-19T01:41:43;7.43;;;2.75;;
73487;SDS011;61721;42.206;25.320;2023-09-19T01:44:21;7.32;;;2.80;;
73487;SDS011;61721;42.206;25.320;2023-09-19T01:46:58;5.10;;;2.65;;
73487;SDS011;61721;42.206;25.320;2023-09-19T01:49:33;4.95;;;2.67;;
73487;SDS011;61721;42.206;25.320;2023-09-19T01:54:41;6.68;;;2.75;;
73487;SDS011;61721;42.206;25.320;2023-09-19T01:57:15;5.55;;;2.50;;
73487;SDS011;61721;42.206;25.320;2023-09-19T01:59:59;6.82;;;2.80;;
73487;SDS011;61721;42.206;25.320;2023-09-19T02:02:34;6.20;;;3.05;;
73487;SDS011;61721;42.206;25.320;2023-09-19T02:05:03;5.82;;;3.05;;
73487;SDS011;61721;42.206;25.320;2023-09-19T02:07:31;8.30;;;2.90;;
73487;SDS011;61721;42.206;25.320;2023-09-19T02:09:59;6.47;;;2.83;;
73487;SDS011;61721;42.206;25.320;2023-09-19T02:12:28;6.60;;;2.67;;
73487;SDS011;61721;42.206;25.320;2023-09-19T02:14:58;7.15;;;3.33;;
73487;SDS011;61721;42.206;25.320;2023-09-19T02:17:25;6.10;;;3.33;;
73487;SDS011;61721;42.206;25.320;2023-09-19T02:19:54;9.43;;;3.03;;
73487;SDS011;61721;42.206;25.320;2023-09-19T02:22:22;8.45;;;2.83;;
73487;SDS011;61721;42.206;25.320;2023-09-19T02:24:50;8.02;;;3.00;;
73487;SDS011;61721;42.206;25.320;2023-09-19T02:27:18;8.20;;;3.03;;
73487;SDS011;61721;42.206;25.320;2023-09-19T02:29:46;7.57;;;2.90;;
73487;SDS011;61721;42.206;25.320;2023-09-19T02:32:14;5.45;;;2.65;;
73487;SDS011;61721;42.206;25.320;2023-09-19T02:34:43;7.32;;;3.30;;
73487;SDS011;61721;42.206;25.320;2023-09-19T02:37:12;6.18;;;2.60;;
73487;SDS011;61721;42.206;25.320;2023-09-19T02:39:41;6.03;;;2.88;;
73487;SDS011;61721;42.206;25.320;2023-09-19T02:42:09;6.95;;;2.72;;
73487;SDS011;61721;42.206;25.320;2023-09-19T02:44:36;4.47;;;2.55;;
73487;SDS011;61721;42.206;25.320;2023-09-19T02:47:03;7.38;;;2.80;;
73487;SDS011;61721;42.206;25.320;2023-09-19T02:49:31;7.03;;;2.85;;
73487;SDS011;61721;42.206;25.320;2023-09-19T02:51:58;7.55;;;2.72;;
73487;SDS011;61721;42.206;25.320;2023-09-19T02:54:27;5.53;;;3.08;;
73487;SDS011;61721;42.206;25.320;2023-09-19T02:56:55;7.53;;;2.97;;
73487;SDS011;61721;42.206;25.320;2023-09-19T02:59:24;5.05;;;2.42;;
73487;SDS011;61721;42.206;25.320;2023-09-19T03:01:53;5.85;;;3.10;;
73487;SDS011;61721;42.206;25.320;2023-09-19T03:04:21;5.05;;;2.83;;
73487;SDS011;61721;42.206;25.320;2023-09-19T03:06:48;6.13;;;3.03;;
73487;SDS011;61721;42.206;25.320;2023-09-19T03:09:17;6.25;;;3.10;;
73487;SDS011;61721;42.206;25.320;2023-09-19T03:11:53;8.55;;;3.40;;
73487;SDS011;61721;42.206;25.320;2023-09-19T03:14:21;5.40;;;2.97;;
73487;SDS011;61721;42.206;25.320;2023-09-19T03:16:50;5.10;;;2.80;;
73487;SDS011;61721;42.206;25.320;2023-09-19T03:19:17;5.72;;;3.10;;
73487;SDS011;61721;42.206;25.320;2023-09-19T03:21:46;6.18;;;2.97;;
73487;SDS011;61721;42.206;25.320;2023-09-19T03:24:16;6.07;;;3.30;;
73487;SDS011;61721;42.206;25.320;2023-09-19T03:26:43;5.30;;;2.88;;
73487;SDS011;61721;42.206;25.320;2023-09-19T03:29:12;5.72;;;3.03;;
73487;SDS011;61721;42.206;25.320;2023-09-19T03:31:41;6.13;;;3.03;;
73487;SDS011;61721;42.206;25.320;2023-09-19T03:34:08;7.03;;;2.83;;
73487;SDS011;61721;42.206;25.320;2023-09-19T03:36:36;5.88;;;2.90;;
73487;SDS011;61721;42.206;25.320;2023-09-19T03:39:03;7.20;;;3.20;;
73487;SDS011;61721;42.206;25.320;2023-09-19T03:41:30;8.75;;;2.95;;
73487;SDS011;61721;42.206;25.320;2023-09-19T03:43:58;7.03;;;2.92;;
73487;SDS011;61721;42.206;25.320;2023-09-19T03:46:27;5.15;;;2.90;;
73487;SDS011;61721;42.206;25.320;2023-09-19T03:48:55;6.28;;;2.67;;
73487;SDS011;61721;42.206;25.320;2023-09-19T03:51:23;5.55;;;2.95;;
73487;SDS011;61721;42.206;25.320;2023-09-19T03:53:50;6.72;;;2.70;;
73487;SDS011;61721;42.206;25.320;2023-09-19T03:56:17;8.32;;;2.70;;
73487;SDS011;61721;42.206;25.320;2023-09-19T03:58:44;5.68;;;3.05;;
73487;SDS011;61721;42.206;25.320;2023-09-19T04:01:12;5.95;;;2.63;;
73487;SDS011;61721;42.206;25.320;2023-09-19T04:03:41;7.20;;;2.90;;
73487;SDS011;61721;42.206;25.320;2023-09-19T04:06:13;5.60;;;2.65;;
73487;SDS011;61721;42.206;25.320;2023-09-19T04:08:41;5.03;;;2.60;;
73487;SDS011;61721;42.206;25.320;2023-09-19T04:11:09;8.25;;;2.88;;
73487;SDS011;61721;42.206;25.320;2023-09-19T04:13:43;5.88;;;2.75;;
73487;SDS011;61721;42.206;25.320;2023-09-19T04:16:10;4.75;;;2.30;;
73487;SDS011;61721;42.206;25.320;2023-09-19T04:18:39;4.80;;;2.25;;
73487;SDS011;61721;42.206;25.320;2023-09-19T04:21:08;8.75;;;2.95;;
73487;SDS011;61721;42.206;25.320;2023-09-19T04:23:35;7.03;;;2.70;;
73487;SDS011;61721;42.206;25.320;2023-09-19T04:26:03;6.97;;;2.90;;
73487;SDS011;61721;42.206;25.320;2023-09-19T04:28:31;5.00;;;2.53;;
73487;SDS011;61721;42.206;25.320;2023-09-19T04:30:59;9.82;;;2.80;;
73487;SDS011;61721;42.206;25.320;2023-09-19T04:33:28;13.43;;;3.25;;
73487;SDS011;61721;42.206;25.320;2023-09-19T04:35:56;9.13;;;3.58;;
73487;SDS011;61721;42.206;25.320;2023-09-19T04:38:25;22.25;;;4.35;;
73487;SDS011;61721;42.206;25.320;2023-09-19T04:40:56;50.97;;;4.32;;
73487;SDS011;61721;42.206;25.320;2023-09-19T04:43:25;11.00;;;2.67;;
73487;SDS011;61721;42.206;25.320;2023-09-19T04:45:53;12.32;;;2.75;;
73487;SDS011;61721;42.206;25.320;2023-09-19T04:48:21;10.45;;;2.67;;
73487;SDS011;61721;42.206;25.320;2023-09-19T04:50:50;10.70;;;3.58;;
73487;SDS011;61721;42.206;25.320;2023-09-19T04:53:18;10.52;;;2.83;;
73487;SDS011;61721;42.206;25.320;2023-09-19T04:55:50;11.80;;;3.63;;
73487;SDS011;61721;42.206;25.320;2023-09-19T04:58:21;14.02;;;3.80;;
73487;SDS011;61721;42.206;25.320;2023-09-19T05:00:48;7.30;;;2.90;;
73487;SDS011;61721;42.206;25.320;2023-09-19T05:03:16;6.65;;;2.58;;
73487;SDS011;61721;42.206;25.320;2023-09-19T05:08:13;5.68;;;2.90;;
73487;SDS011;61721;42.206;25.320;2023-09-19T05:10:41;8.98;;;3.10;;
73487;SDS011;61721;42.206;25.320;2023-09-19T05:13:10;6.10;;;3.13;;
73487;SDS011;61721;42.206;25.320;2023-09-19T05:15:37;6.85;;;3.35;;
73487;SDS011;61721;42.206;25.320;2023-09-19T05:18:04;8.25;;;3.35;;
73487;SDS011;61721;42.206;25.320;2023-09-19T05:20:32;6.18;;;2.97;;
73487;SDS011;61721;42.206;25.320;2023-09-19T05:23:02;5.55;;;2.90;;
73487;SDS011;61721;42.206;25.320;2023-09-19T05:25:33;8.75;;;2.70;;
73487;SDS011;61721;42.206;25.320;2023-09-19T05:28:04;9.80;;;2.92;;
73487;SDS011;61721;42.206;25.320;2023-09-19T05:30:34;6.93;;;2.65;;
73487;SDS011;61721;42.206;25.320;2023-09-19T05:33:03;7.35;;;2.75;;
73487;SDS011;61721;42.206;25.320;2023-09-19T05:35:31;8.38;;;3.13;;
73487;SDS011;61721;42.206;25.320;2023-09-19T05:37:58;21.83;;;9.23;;
73487;SDS011;61721;42.206;25.320;2023-09-19T05:40:26;13.35;;;8.00;;
73487;SDS011;61721;42.206;25.320;2023-09-19T05:42:53;7.88;;;3.95;;
73487;SDS011;61721;42.206;25.320;2023-09-19T05:45:21;6.00;;;3.88;;
73487;SDS011;61721;42.206;25.320;2023-09-19T05:47:50;6.80;;;2.80;;
73487;SDS011;61721;42.206;25.320;2023-09-19T05:50:26;9.13;;;2.72;;
73487;SDS011;61721;42.206;25.320;2023-09-19T05:52:53;20.80;;;3.65;;
73487;SDS011;61721;42.206;25.320;2023-09-19T05:55:21;7.90;;;2.70;;
73487;SDS011;61721;42.206;25.320;2023-09-19T05:57:50;6.63;;;2.83;;
73487;SDS011;61721;42.206;25.320;2023-09-19T06:00:18;5.70;;;2.88;;
73487;SDS011;61721;42.206;25.320;2023-09-19T06:02:50;10.02;;;2.72;;
73487;SDS011;61721;42.206;25.320;2023-09-19T06:05:18;7.80;;;2.75;;
73487;SDS011;61721;42.206;25.320;2023-09-19T06:07:47;5.25;;;3.22;;
73487;SDS011;61721;42.206;25.320;2023-09-19T06:10:14;5.22;;;2.80;;
73487;SDS011;61721;42.206;25.320;2023-09-19T06:12:43;7.65;;;2.55;;
73487;SDS011;61721;42.206;25.320;2023-09-19T06:15:11;4.97;;;2.58;;
73487;SDS011;61721;42.206;25.320;2023-09-19T06:17:40;4.82;;;2.28;;
73487;SDS011;61721;42.206;25.320;2023-09-19T06:20:10;6.72;;;2.50;;
73487;SDS011;61721;42.206;25.320;2023-09-19T06:22:40;7.05;;;2.88;;
73487;SDS011;61721;42.206;25.320;2023-09-19T06:25:08;4.55;;;2.65;;
73487;SDS011;61721;42.206;25.320;2023-09-19T06:27:37;6.70;;;3.15;;
73487;SDS011;61721;42.206;25.320;2023-09-19T06:30:07;10.48;;;2.80;;
73487;SDS011;61721;42.206;25.320;2023-09-19T06:32:36;6.13;;;2.70;;
73487;SDS011;61721;42.206;25.320;2023-09-19T06:35:04;21.67;;;3.60;;
73487;SDS011;61721;42.206;25.320;2023-09-19T06:37:35;6.85;;;2.80;;
73487;SDS011;61721;42.206;25.320;2023-09-19T06:40:05;4.68;;;2.90;;
73487;SDS011;61721;42.206;25.320;2023-09-19T06:42:35;6.63;;;3.05;;
73487;SDS011;61721;42.206;25.320;2023-09-19T06:45:04;9.45;;;3.38;;
73487;SDS011;61721;42.206;25.320;2023-09-19T06:47:32;5.70;;;3.08;;
73487;SDS011;61721;42.206;25.320;2023-09-19T06:49:59;6.93;;;3.10;;
73487;SDS011;61721;42.206;25.320;2023-09-19T06:52:27;5.47;;;2.90;;
73487;SDS011;61721;42.206;25.320;2023-09-19T06:54:58;7.05;;;3.85;;
73487;SDS011;61721;42.206;25.320;2023-09-19T06:57:28;13.98;;;3.60;;
73487;SDS011;61721;42.206;25.320;2023-09-19T06:59:56;10.23;;;3.08;;
73487;SDS011;61721;42.206;25.320;2023-09-19T07:02:23;9.15;;;3.10;;
73487;SDS011;61721;42.206;25.320;2023-09-19T07:04:50;9.75;;;3.20;;
73487;SDS011;61721;42.206;25.320;2023-09-19T07:07:18;5.80;;;3.22;;
73487;SDS011;61721;42.206;25.320;2023-09-19T07:09:45;9.15;;;3.10;;
73487;SDS011;61721;42.206;25.320;2023-09-19T07:12:16;6.93;;;2.97;;
73487;SDS011;61721;42.206;25.320;2023-09-19T07:14:43;6.35;;;3.15;;
73487;SDS011;61721;42.206;25.320;2023-09-19T07:17:10;12.65;;;4.00;;
73487;SDS011;61721;42.206;25.320;2023-09-19T07:19:38;12.48;;;3.10;;
73487;SDS011;61721;42.206;25.320;2023-09-19T07:22:06;6.00;;;2.65;;
73487;SDS011;61721;42.206;25.320;2023-09-19T07:24:33;5.30;;;2.65;;
73487;SDS011;61721;42.206;25.320;2023-09-19T07:27:02;7.65;;;2.50;;
73487;SDS011;61721;42.206;25.320;2023-09-19T07:29:32;5.32;;;2.50;;
73487;SDS011;61721;42.206;25.320;2023-09-19T07:31:59;4.70;;;2.50;;
73487;SDS011;61721;42.206;25.320;2023-09-19T07:34:26;5.57;;;2.40;;
73487;SDS011;61721;42.206;25.320;2023-09-19T07:36:54;6.88;;;2.40;;
73487;SDS011;61721;42.206;25.320;2023-09-19T07:39:22;6.13;;;2.35;;
73487;SDS011;61721;42.206;25.320;2023-09-19T07:41:49;5.32;;;2.65;;
73487;SDS011;61721;42.206;25.320;2023-09-19T07:44:16;5.32;;;2.67;;
73487;SDS011;61721;42.206;25.320;2023-09-19T07:46:46;7.03;;;2.80;;
73487;SDS011;61721;42.206;25.320;2023-09-19T07:49:16;5.07;;;2.10;;
73487;SDS011;61721;42.206;25.320;2023-09-19T07:51:44;5.70;;;2.58;;
73487;SDS011;61721;42.206;25.320;2023-09-19T07:54:12;5.20;;;2.22;;
73487;SDS011;61721;42.206;25.320;2023-09-19T07:56:40;7.82;;;2.28;;
73487;SDS011;61721;42.206;25.320;2023-09-19T07:59:08;6.70;;;2.30;;
73487;SDS011;61721;42.206;25.320;2023-09-19T08:01:36;7.75;;;2.50;;
73487;SDS011;61721;42.206;25.320;2023-09-19T08:04:06;7.60;;;2.05;;
73487;SDS011;61721;42.206;25.320;2023-09-19T08:06:34;7.65;;;2.20;;
73487;SDS011;61721;42.206;25.320;2023-09-19T08:11:36;4.68;;;2.10;;
73487;SDS011;61721;42.206;25.320;2023-09-19T08:14:05;8.13;;;2.35;;
73487;SDS011;61721;42.206;25.320;2023-09-19T08:16:34;5.40;;;2.20;;
73487;SDS011;61721;42.206;25.320;2023-09-19T08:19:01;4.47;;;2.30;;
73487;SDS011;61721;42.206;25.320;2023-09-19T08:21:30;5.00;;;2.25;;
73487;SDS011;61721;42.206;25.320;2023-09-19T08:23:57;5.22;;;2.42;;
73487;SDS011;61721;42.206;25.320;2023-09-19T08:26:25;7.85;;;2.40;;
73487;SDS011;61721;42.206;25.320;2023-09-19T08:28:52;5.43;;;2.35;;
73487;SDS011;61721;42.206;25.320;2023-09-19T08:31:21;5.63;;;2.70;;
73487;SDS011;61721;42.206;25.320;2023-09-19T08:33:49;6.47;;;2.42;;
73487;SDS011;61721;42.206;25.320;2023-09-19T08:36:18;4.47;;;2.25;;
73487;SDS011;61721;42.206;25.320;2023-09-19T08:38:47;9.95;;;2.13;;
73487;SDS011;61721;42.206;25.320;2023-09-19T08:41:15;4.03;;;2.03;;
73487;SDS011;61721;42.206;25.320;2023-09-19T08:43:44;6.90;;;1.88;;
73487;SDS011;61721;42.206;25.320;2023-09-19T08:46:14;6.45;;;2.22;;
73487;SDS011;61721;42.206;25.320;2023-09-19T08:48:45;4.30;;;2.00;;
73487;SDS011;61721;42.206;25.320;2023-09-19T08:51:20;7.40;;;2.00;;
73487;SDS011;61721;42.206;25.320;2023-09-19T08:53:58;3.78;;;1.70;;
73487;SDS011;61721;42.206;25.320;2023-09-19T08:56:33;4.35;;;1.95;;
73487;SDS011;61721;42.206;25.320;2023-09-19T08:59:03;4.72;;;1.80;;
73487;SDS011;61721;42.206;25.320;2023-09-19T09:01:33;8.25;;;2.38;;
73487;SDS011;61721;42.206;25.320;2023-09-19T09:04:01;4.13;;;2.10;;
73487;SDS011;61721;42.206;25.320;2023-09-19T09:06:29;4.45;;;2.10;;
73487;SDS011;61721;42.206;25.320;2023-09-19T09:08:59;7.03;;;2.00;;
73487;SDS011;61721;42.206;25.320;2023-09-19T09:11:27;4.93;;;1.77;;
73487;SDS011;61721;42.206;25.320;2023-09-19T09:13:55;4.95;;;2.30;;
73487;SDS011;61721;42.206;25.320;2023-09-19T09:16:23;4.05;;;2.20;;
73487;SDS011;61721;42.206;25.320;2023-09-19T09:18:51;5.97;;;2.10;;
73487;SDS011;61721;42.206;25.320;2023-09-19T09:21:20;4.03;;;2.20;;
73487;SDS011;61721;42.206;25.320;2023-09-19T09:23:48;5.07;;;2.08;;
73487;SDS011;61721;42.206;25.320;2023-09-19T09:26:18;5.25;;;2.08;;
73487;SDS011;61721;42.206;25.320;2023-09-19T09:29:04;3.97;;;1.88;;
73487;SDS011;61721;42.206;25.320;2023-09-19T09:31:31;5.25;;;2.20;;
73487;SDS011;61721;42.206;25.320;2023-09-19T09:33:59;4.28;;;2.05;;
73487;SDS011;61721;42.206;25.320;2023-09-19T09:36:33;4.57;;;2.13;;
73487;SDS011;61721;42.206;25.320;2023-09-19T09:39:02;4.72;;;1.90;;
73487;SDS011;61721;42.206;25.320;2023-09-19T09:41:42;5.57;;;1.73;;
73487;SDS011;61721;42.206;25.320;2023-09-19T09:44:14;5.22;;;2.03;;
73487;SDS011;61721;42.206;25.320;2023-09-19T09:46:44;6.45;;;1.95;;
73487;SDS011;61721;42.206;25.320;2023-09-19T09:49:41;10.20;;;2.00;;
73487;SDS011;61721;42.206;25.320;2023-09-19T09:52:19;5.60;;;1.80;;
73487;SDS011;61721;42.206;25.320;2023-09-19T09:54:58;4.97;;;2.03;;
73487;SDS011;61721;42.206;25.320;2023-09-19T09:57:32;3.72;;;1.88;;
73487;SDS011;61721;42.206;25.320;2023-09-19T10:00:06;3.50;;;1.70;;
73487;SDS011;61721;42.206;25.320;2023-09-19T10:02:45;5.47;;;2.08;;
73487;SDS011;61721;42.206;25.320;2023-09-19T10:05:13;4.32;;;1.80;;
73487;SDS011;61721;42.206;25.320;2023-09-19T10:07:47;4.65;;;1.90;;
73487;SDS011;61721;42.206;25.320;2023-09-19T10:10:29;9.05;;;2.05;;
73487;SDS011;61721;42.206;25.320;2023-09-19T10:13:06;6.22;;;1.80;;
73487;SDS011;61721;42.206;25.320;2023-09-19T10:15:39;3.40;;;1.67;;
73487;SDS011;61721;42.206;25.320;2023-09-19T10:18:12;4.57;;;2.08;;
73487;SDS011;61721;42.206;25.320;2023-09-19T10:20:44;3.83;;;1.90;;
73487;SDS011;61721;42.206;25.320;2023-09-19T10:23:14;3.55;;;1.80;;
73487;SDS011;61721;42.206;25.320;2023-09-19T10:25:48;4.47;;;2.08;;
73487;SDS011;61721;42.206;25.320;2023-09-19T10:28:17;5.55;;;2.30;;
73487;SDS011;61721;42.206;25.320;2023-09-19T10:30:47;3.83;;;1.92;;
73487;SDS011;61721;42.206;25.320;2023-09-19T10:33:16;3.60;;;1.80;;
73487;SDS011;61721;42.206;25.320;2023-09-19T10:35:46;4.22;;;1.80;;
73487;SDS011;61721;42.206;25.320;2023-09-19T10:38:14;5.57;;;1.80;;
73487;SDS011;61721;42.206;25.320;2023-09-19T10:40:48;4.63;;;1.90;;
73487;SDS011;61721;42.206;25.320;2023-09-19T10:43:19;4.85;;;1.80;;
73487;SDS011;61721;42.206;25.320;2023-09-19T10:45:48;5.35;;;1.90;;
73487;SDS011;61721;42.206;25.320;2023-09-19T10:48:23;5.90;;;1.90;;
73487;SDS011;61721;42.206;25.320;2023-09-19T10:50:52;4.88;;;1.80;;
73487;SDS011;61721;42.206;25.320;2023-09-19T10:53:26;5.25;;;2.05;;
73487;SDS011;61721;42.206;25.320;2023-09-19T10:55:57;5.38;;;2.10;;
73487;SDS011;61721;42.206;25.320;2023-09-19T10:58:36;4.78;;;1.63;;
73487;SDS011;61721;42.206;25.320;2023-09-19T11:01:08;3.92;;;1.80;;
73487;SDS011;61721;42.206;25.320;2023-09-19T11:03:37;3.92;;;1.95;;
73487;SDS011;61721;42.206;25.320;2023-09-19T11:06:09;7.10;;;1.73;;
73487;SDS011;61721;42.206;25.320;2023-09-19T11:08:53;4.05;;;1.90;;
73487;SDS011;61721;42.206;25.320;2023-09-19T11:11:39;4.13;;;1.52;;
73487;SDS011;61721;42.206;25.320;2023-09-19T11:14:16;6.07;;;1.70;;
73487;SDS011;61721;42.206;25.320;2023-09-19T11:20:22;4.60;;;1.70;;
73487;SDS011;61721;42.206;25.320;2023-09-19T11:23:19;3.55;;;1.60;;
73487;SDS011;61721;42.206;25.320;2023-09-19T11:25:52;4.25;;;1.70;;
73487;SDS011;61721;42.206;25.320;2023-09-19T11:28:30;4.15;;;1.83;;
73487;SDS011;61721;42.206;25.320;2023-09-19T11:30:58;3.97;;;1.80;;
73487;SDS011;61721;42.206;25.320;2023-09-19T11:33:26;4.30;;;1.77;;
73487;SDS011;61721;42.206;25.320;2023-09-19T11:35:59;4.97;;;1.63;;
73487;SDS011;61721;42.206;25.320;2023-09-19T11:41:36;6.90;;;1.83;;
73487;SDS011;61721;42.206;25.320;2023-09-19T11:47:05;4.88;;;2.55;;
73487;SDS011;61721;42.206;25.320;2023-09-19T11:49:34;5.03;;;1.75;;
73487;SDS011;61721;42.206;25.320;2023-09-19T11:52:07;5.25;;;1.80;;
73487;SDS011;61721;42.206;25.320;2023-09-19T11:54:36;3.40;;;1.63;;
73487;SDS011;61721;42.206;25.320;2023-09-19T11:57:06;6.47;;;1.80;;
73487;SDS011;61721;42.206;25.320;2023-09-19T11:59:38;4.88;;;1.75;;
73487;SDS011;61721;42.206;25.320;2023-09-19T12:02:07;7.68;;;2.10;;
73487;SDS011;61721;42.206;25.320;2023-09-19T12:04:46;7.68;;;3.38;;
73487;SDS011;61721;42.206;25.320;2023-09-19T12:12:18;4.30;;;1.75;;
73487;SDS011;61721;42.206;25.320;2023-09-19T12:14:47;3.88;;;1.63;;
73487;SDS011;61721;42.206;25.320;2023-09-19T12:19:51;3.78;;;1.80;;
73487;SDS011;61721;42.206;25.320;2023-09-19T12:22:19;6.70;;;1.98;;
73487;SDS011;61721;42.206;25.320;2023-09-19T12:24:46;4.55;;;1.63;;
73487;SDS011;61721;42.206;25.320;2023-09-19T12:29:43;4.22;;;1.70;;
73487;SDS011;61721;42.206;25.320;2023-09-19T12:32:11;4.20;;;1.60;;
73487;SDS011;61721;42.206;25.320;2023-09-19T12:34:49;5.53;;;1.77;;
73487;SDS011;61721;42.206;25.320;2023-09-19T12:37:18;4.13;;;1.50;;
73487;SDS011;61721;42.206;25.320;2023-09-19T12:39:48;3.65;;;1.70;;
73487;SDS011;61721;42.206;25.320;2023-09-19T12:42:19;4.07;;;1.75;;
73487;SDS011;61721;42.206;25.320;2023-09-19T12:44:48;5.72;;;1.52;;
73487;SDS011;61721;42.206;25.320;2023-09-19T12:47:22;5.78;;;1.83;;
73487;SDS011;61721;42.206;25.320;2023-09-19T12:50:11;4.22;;;1.63;;
73487;SDS011;61721;42.206;25.320;2023-09-19T12:52:44;9.23;;;1.83;;
73487;SDS011;61721;42.206;25.320;2023-09-19T12:55:22;3.17;;;1.45;;
73487;SDS011;61721;42.206;25.320;2023-09-19T12:58:00;4.30;;;1.77;;
73487;SDS011;61721;42.206;25.320;2023-09-19T13:00:36;4.40;;;1.75;;
73487;SDS011;61721;42.206;25.320;2023-09-19T13:03:14;4.25;;;1.70;;
73487;SDS011;61721;42.206;25.320;2023-09-19T13:05:52;3.60;;;1.60;;
73487;SDS011;61721;42.206;25.320;2023-09-19T13:08:21;6.18;;;1.60;;
73487;SDS011;61721;42.206;25.320;2023-09-19T13:11:07;4.40;;;1.90;;
73487;SDS011;61721;42.206;25.320;2023-09-19T13:13:38;4.10;;;1.65;;
73487;SDS011;61721;42.206;25.320;2023-09-19T13:16:07;7.68;;;1.73;;
73487;SDS011;61721;42.206;25.320;2023-09-19T13:18:47;4.82;;;1.85;;
73487;SDS011;61721;42.206;25.320;2023-09-19T13:21:28;8.95;;;1.80;;
73487;SDS011;61721;42.206;25.320;2023-09-19T13:24:17;4.72;;;1.88;;
73487;SDS011;61721;42.206;25.320;2023-09-19T13:26:45;4.35;;;1.63;;
73487;SDS011;61721;42.206;25.320;2023-09-19T13:29:13;4.95;;;1.80;;
73487;SDS011;61721;42.206;25.320;2023-09-19T13:31:45;4.03;;;1.65;;
73487;SDS011;61721;42.206;25.320;2023-09-19T13:34:13;4.30;;;1.83;;
73487;SDS011;61721;42.206;25.320;2023-09-19T13:36:43;5.10;;;1.77;;
73487;SDS011;61721;42.206;25.320;2023-09-19T13:39:13;5.78;;;1.70;;
73487;SDS011;61721;42.206;25.320;2023-09-19T13:41:40;5.88;;;1.83;;
73487;SDS011;61721;42.206;25.320;2023-09-19T13:44:09;4.60;;;1.92;;
73487;SDS011;61721;42.206;25.320;2023-09-19T13:46:37;5.22;;;1.77;;
73487;SDS011;61721;42.206;25.320;2023-09-19T13:49:04;3.97;;;1.65;;
73487;SDS011;61721;42.206;25.320;2023-09-19T13:51:32;7.13;;;1.88;;
73487;SDS011;61721;42.206;25.320;2023-09-19T13:54:03;4.47;;;1.83;;
73487;SDS011;61721;42.206;25.320;2023-09-19T13:56:31;18.73;;;2.70;;
73487;SDS011;61721;42.206;25.320;2023-09-19T13:58:59;8.18;;;1.80;;
73487;SDS011;61721;42.206;25.320;2023-09-19T14:01:26;4.60;;;1.55;;
73487;SDS011;61721;42.206;25.320;2023-09-19T14:03:53;7.00;;;1.63;;
73487;SDS011;61721;42.206;25.320;2023-09-19T14:06:22;5.07;;;1.92;;
73487;SDS011;61721;42.206;25.320;2023-09-19T14:08:51;5.05;;;1.77;;
73487;SDS011;61721;42.206;25.320;2023-09-19T14:11:20;4.13;;;1.77;;
73487;SDS011;61721;42.206;25.320;2023-09-19T14:13:48;8.48;;;1.58;;
73487;SDS011;61721;42.206;25.320;2023-09-19T14:16:15;4.20;;;1.77;;
73487;SDS011;61721;42.206;25.320;2023-09-19T14:18:44;4.25;;;1.90;;
73487;SDS011;61721;42.206;25.320;2023-09-19T14:21:12;5.75;;;1.83;;
73487;SDS011;61721;42.206;25.320;2023-09-19T14:23:40;4.90;;;1.63;;
73487;SDS011;61721;42.206;25.320;2023-09-19T14:26:09;7.70;;;1.77;;
73487;SDS011;61721;42.206;25.320;2023-09-19T14:28:37;5.25;;;3.00;;
73487;SDS011;61721;42.206;25.320;2023-09-19T14:31:05;5.95;;;1.90;;
73487;SDS011;61721;42.206;25.320;2023-09-19T14:33:33;5.43;;;1.90;;
73487;SDS011;61721;42.206;25.320;2023-09-19T14:36:02;4.25;;;1.80;;
73487;SDS011;61721;42.206;25.320;2023-09-19T14:38:32;5.65;;;1.55;;
73487;SDS011;61721;42.206;25.320;2023-09-19T14:41:00;18.10;;;12.02;;
73487;SDS011;61721;42.206;25.320;2023-09-19T14:43:28;17.35;;;9.93;;
73487;SDS011;61721;42.206;25.320;2023-09-19T14:45:57;10.50;;;4.53;;
73487;SDS011;61721;42.206;25.320;2023-09-19T14:48:28;9.68;;;4.80;;
73487;SDS011;61721;42.206;25.320;2023-09-19T14:51:01;8.40;;;4.25;;
73487;SDS011;61721;42.206;25.320;2023-09-19T14:53:29;4.40;;;2.08;;
73487;SDS011;61721;42.206;25.320;2023-09-19T14:55:59;5.32;;;1.75;;
73487;SDS011;61721;42.206;25.320;2023-09-19T14:58:28;5.30;;;1.80;;
73487;SDS011;61721;42.206;25.320;2023-09-19T15:01:02;4.00;;;1.80;;
73487;SDS011;61721;42.206;25.320;2023-09-19T15:03:31;3.97;;;1.80;;
73487;SDS011;61721;42.206;25.320;2023-09-19T15:05:59;3.63;;;1.60;;
73487;SDS011;61721;42.206;25.320;2023-09-19T15:08:27;5.05;;;1.73;;
73487;SDS011;61721;42.206;25.320;2023-09-19T15:10:54;4.03;;;1.80;;
73487;SDS011;61721;42.206;25.320;2023-09-19T15:13:23;5.70;;;2.05;;
73487;SDS011;61721;42.206;25.320;2023-09-19T15:15:58;4.63;;;2.03;;
73487;SDS011;61721;42.206;25.320;2023-09-19T15:18:27;4.07;;;1.92;;
73487;SDS011;61721;42.206;25.320;2023-09-19T15:20:56;3.80;;;1.75;;